Fure West — OZ2100 — position and weather

sailwx.info

Track history (hours):
 
Tides and Currents Weather Stations Pressure Air Temp Water Temp Dewpoint Dewpoint Depression Visibility Wind Speed Wind Dir Waves Ship Positions

Fure West

Last reported at 2014-Nov-27 02:33 UTC. Time now 2014-Nov-27 05:39 UTC.
Position N 57°02' E 017°31'.

Length 144 m; draft 6.2 m.

Type: Tanker. MMSI: 231775000.

Date/timePositionNaut miles runAvg speedWind from/ knotsBaromVisibWave heightAir tempDewpointWater temp
2014-Nov-27 02:33N 57°02' E 017°31'1313.4
2014-Nov-27 01:33N 57°15' E 017°34'1413.9
2014-Nov-27 00:34N 57°28' E 017°41'7211.9
2014-Nov-26 18:33N 58°37' E 017°05'1414.0
2014-Nov-26 17:33N 58°38' E 016°38'1111.1
2014-Nov-26 16:33N 58°37' E 016°17'1 0.0
2014-Nov-25 22:33N 58°37' E 016°15'8 7.9
2014-Nov-25 21:33N 58°39' E 016°30'1312.9
2014-Nov-25 20:32N 58°36' E 016°55'18710.3
2014-Nov-25 02:23N 55°36' E 015°24'1113.9
2014-Nov-25 01:33N 55°31' E 015°06'1413.8
2014-Nov-25 00:33N 55°26' E 014°44'1413.7
2014-Nov-24 23:33N 55°16' E 014°27'1413.9
2014-Nov-24 22:31N 55°04' E 014°12'7114.1
2014-Nov-24 17:30N 54°35' E 012°19'1313.8
2014-Nov-24 16:33N 54°24' E 012°08'172 8.8
2014-Nov-23 21:10N 57°15' E 011°33'4 6.7
2014-Nov-23 20:33N 57°19' E 011°30'7 6.7
2014-Nov-23 19:33N 57°25' E 011°26'7 6.6
2014-Nov-23 18:34N 57°31' E 011°23'7 6.7
2014-Nov-23 17:34N 57°38' E 011°20'8 7.6
2014-Nov-23 16:33N 57°45' E 011°17'8 8.3
2014-Nov-23 15:34N 57°54' E 011°14'1010.4
2014-Nov-23 14:33N 58°04' E 011°10'1211.8
2014-Nov-23 13:33N 58°16' E 011°12'9 8.0
2014-Nov-23 12:23N 58°21' E 011°26'0 0.0
2014-Nov-23 11:29N 58°21' E 011°26'0 0.0
2014-Nov-23 10:29N 58°21' E 011°26'0 0.0
2014-Nov-23 09:23N 58°21' E 011°26'0 0.0
2014-Nov-23 08:29N 58°21' E 011°26'0 0.0
2014-Nov-23 07:32N 58°21' E 011°26'0 0.0
2014-Nov-23 06:26N 58°21' E 011°26'0 0.0
2014-Nov-23 05:23N 58°21' E 011°26'0 0.0
2014-Nov-23 04:26N 58°21' E 011°26'0 0.0
2014-Nov-23 03:26N 58°21' E 011°26'0 0.0
2014-Nov-23 02:32N 58°21' E 011°26'0 0.0
2014-Nov-23 01:32N 58°21' E 011°26'0 0.0
2014-Nov-23 00:20N 58°21' E 011°26'0 0.0
2014-Nov-22 23:29N 58°21' E 011°26'0 0.0
2014-Nov-22 22:32N 58°21' E 011°26'0 0.0
2014-Nov-22 21:29N 58°21' E 011°26'1 1.3
2014-Nov-22 20:33N 58°21' E 011°24'1110.7
2014-Nov-22 19:34N 58°13' E 011°11'2 1.7
2014-Nov-22 18:28N 58°11' E 011°09'0 0.0
2014-Nov-22 17:28N 58°11' E 011°09'0 0.0
2014-Nov-22 16:31N 58°11' E 011°09'0 0.0
2014-Nov-22 15:28N 58°11' E 011°09'0 0.0
2014-Nov-22 14:31N 58°11' E 011°09'0 0.0
2014-Nov-22 13:31N 58°11' E 011°09'0 0.0
2014-Nov-22 12:31N 58°11' E 011°09'0 0.0
2014-Nov-22 11:31N 58°11' E 011°09'0 0.0
2014-Nov-22 10:31N 58°11' E 011°09'0 0.0
2014-Nov-22 09:31N 58°11' E 011°09'0 0.0
2014-Nov-22 08:31N 58°11' E 011°09'0 0.0
2014-Nov-22 07:31N 58°11' E 011°09'0 0.0
2014-Nov-22 06:31N 58°11' E 011°09'2 2.3
2014-Nov-22 05:33N 58°10' E 011°06'1312.7
2014-Nov-22 04:33N 58°05' E 010°44'1413.2
2014-Nov-22 03:28N 57°57' E 010°20'19012.7
2014-Nov-21 12:26N 55°33' E 006°34'8312.0
2014-Nov-21 05:31N 54°23' E 005°16'1212.3
2014-Nov-21 04:31N 54°13' E 005°04'1111.8
2014-Nov-21 03:33N 54°04' E 004°54'1212.1
2014-Nov-21 02:33N 53°51' E 004°53'1312.1
2014-Nov-21 01:30N 53°39' E 004°51'1111.6
2014-Nov-21 00:34N 53°29' E 004°45'1111.3
2014-Nov-20 23:34N 53°18' E 004°37'1111.3
2014-Nov-20 22:33N 53°08' E 004°29'1111.2
2014-Nov-20 21:34N 52°58' E 004°20'1110.9
2014-Nov-20 20:33N 52°49' E 004°11'1110.8
2014-Nov-20 19:34N 52°41' E 003°59'1110.7
2014-Nov-20 18:32N 52°33' E 003°47'1110.8
2014-Nov-20 17:33N 52°24' E 003°37'2512.0
2014-Nov-20 15:26N 52°00' E 003°23'1112.4
2014-Nov-20 14:32N 51°49' E 003°19'1212.2
2014-Nov-20 13:33N 51°37' E 003°22'1414.2
2014-Nov-20 12:33N 51°26' E 003°36'1010.1
2014-Nov-20 11:34N 51°21' E 003°50'9 8.7
2014-Nov-20 10:33N 51°25' E 004°02'9 9.0
2014-Nov-20 09:33N 51°21' E 004°15'1 1.3
2014-Nov-20 08:33N 51°21' E 004°17'1 0.9
2014-Nov-20 07:15N 51°22' E 004°18'0 0.0
2014-Nov-19 07:32N 51°22' E 004°18'1 1.2
2014-Nov-19 06:34N 51°21' E 004°17'0 0.0
2014-Nov-19 05:33N 51°21' E 004°17'2 2.2
2014-Nov-19 04:33N 51°21' E 004°14'5 5.0
2014-Nov-19 03:33N 51°22' E 004°06'6 5.5
2014-Nov-19 02:33N 51°24' E 003°57'9 8.6
2014-Nov-19 01:33N 51°22' E 003°44'8 8.0
2014-Nov-19 00:34N 51°27' E 003°33'1010.3
2014-Nov-18 23:33N 51°35' E 003°23'1111.1
2014-Nov-18 22:33N 51°44' E 003°13'4411.0
2014-Nov-18 18:32N 52°24' E 003°46'1110.8
2014-Nov-18 17:33N 52°26' E 004°03'1 0.7
2014-Nov-18 16:33N 52°27' E 004°03'0 0.1
2014-Nov-18 15:33N 52°27' E 004°03'0 0.1
2014-Nov-18 14:30N 52°27' E 004°03'0 0.1
2014-Nov-18 13:33N 52°27' E 004°03'0 0.0
2014-Nov-18 12:21N 52°27' E 004°03'0 0.0
2014-Nov-18 11:24N 52°27' E 004°03'0 0.1
2014-Nov-18 10:33N 52°27' E 004°03'0 0.1
2014-Nov-18 09:30N 52°27' E 004°03'0 0.0
2014-Nov-18 08:33N 52°27' E 004°03'0 0.0
2014-Nov-18 07:33N 52°27' E 004°03'0 0.0
2014-Nov-18 06:30N 52°27' E 004°03'0 0.0
2014-Nov-18 05:33N 52°27' E 004°03'0 0.0
2014-Nov-18 04:33N 52°27' E 004°03'0 0.0
2014-Nov-18 03:33N 52°27' E 004°03'0 0.0
2014-Nov-18 02:33N 52°27' E 004°03'0 0.1
2014-Nov-18 01:33N 52°27' E 004°03'0 0.0
2014-Nov-18 00:30N 52°27' E 004°03'0 0.0
2014-Nov-17 23:33N 52°27' E 004°03'0 0.0
2014-Nov-17 22:27N 52°27' E 004°03'0 0.1
2014-Nov-17 21:33N 52°27' E 004°03'0 0.1
2014-Nov-17 20:33N 52°27' E 004°03'0 0.0
2014-Nov-17 19:33N 52°27' E 004°03'0 0.0
2014-Nov-17 18:33N 52°27' E 004°03'0 0.0
2014-Nov-17 17:33N 52°27' E 004°03'0 0.0
2014-Nov-17 16:33N 52°27' E 004°03'0 0.1
2014-Nov-17 15:33N 52°27' E 004°03'0 0.1
2014-Nov-17 14:33N 52°27' E 004°03'0 0.0
2014-Nov-17 13:33N 52°27' E 004°03'0 0.0
2014-Nov-17 12:24N 52°27' E 004°03'0 0.0
2014-Nov-17 11:30N 52°27' E 004°03'0 0.0
2014-Nov-17 10:30N 52°27' E 004°03'0 0.0
2014-Nov-17 09:21N 52°27' E 004°03'0 0.1
2014-Nov-17 08:33N 52°27' E 004°03'0 0.0
2014-Nov-17 07:33N 52°27' E 004°03'0 0.0
2014-Nov-17 06:30N 52°27' E 004°03'0 0.0
2014-Nov-17 05:33N 52°27' E 004°03'0 0.0
2014-Nov-17 04:33N 52°27' E 004°03'0 0.0
2014-Nov-17 03:33N 52°27' E 004°03'0 0.1
2014-Nov-17 02:33N 52°27' E 004°03'  
Track history (hours):
 
Tides and Currents Weather Stations Pressure Air Temp Water Temp Dewpoint Dewpoint Depression Visibility Wind Speed Wind Dir Waves Ship Positions

Fure West

Last reported at 2014-Nov-27 02:33 UTC. Time now 2014-Nov-27 05:39 UTC.
Position N 57°02' E 017°31'.

Length 144 m; draft 6.2 m.

Type: Tanker. MMSI: 231775000.

Date/timePositionNaut miles runAvg speedWind from/ knotsBaromVisibWave heightAir tempDewpointWater temp
2014-Nov-27 02:33N 57°02' E 017°31'1313.4
2014-Nov-27 01:33N 57°15' E 017°34'1413.9
2014-Nov-27 00:34N 57°28' E 017°41'7211.9
2014-Nov-26 18:33N 58°37' E 017°05'1414.0
2014-Nov-26 17:33N 58°38' E 016°38'1111.1
2014-Nov-26 16:33N 58°37' E 016°17'1 0.0
2014-Nov-25 22:33N 58°37' E 016°15'8 7.9
2014-Nov-25 21:33N 58°39' E 016°30'1312.9
2014-Nov-25 20:32N 58°36' E 016°55'18710.3
2014-Nov-25 02:23N 55°36' E 015°24'1113.9
2014-Nov-25 01:33N 55°31' E 015°06'1413.8
2014-Nov-25 00:33N 55°26' E 014°44'1413.7
2014-Nov-24 23:33N 55°16' E 014°27'1413.9
2014-Nov-24 22:31N 55°04' E 014°12'7114.1
2014-Nov-24 17:30N 54°35' E 012°19'1313.8
2014-Nov-24 16:33N 54°24' E 012°08'172 8.8
2014-Nov-23 21:10N 57°15' E 011°33'4 6.7
2014-Nov-23 20:33N 57°19' E 011°30'7 6.7
2014-Nov-23 19:33N 57°25' E 011°26'7 6.6
2014-Nov-23 18:34N 57°31' E 011°23'7 6.7
2014-Nov-23 17:34N 57°38' E 011°20'8 7.6
2014-Nov-23 16:33N 57°45' E 011°17'8 8.3
2014-Nov-23 15:34N 57°54' E 011°14'1010.4
2014-Nov-23 14:33N 58°04' E 011°10'1211.8
2014-Nov-23 13:33N 58°16' E 011°12'9 8.0
2014-Nov-23 12:23N 58°21' E 011°26'0 0.0
2014-Nov-23 11:29N 58°21' E 011°26'0 0.0
2014-Nov-23 10:29N 58°21' E 011°26'0 0.0
2014-Nov-23 09:23N 58°21' E 011°26'0 0.0
2014-Nov-23 08:29N 58°21' E 011°26'0 0.0
2014-Nov-23 07:32N 58°21' E 011°26'0 0.0
2014-Nov-23 06:26N 58°21' E 011°26'0 0.0
2014-Nov-23 05:23N 58°21' E 011°26'0 0.0
2014-Nov-23 04:26N 58°21' E 011°26'0 0.0
2014-Nov-23 03:26N 58°21' E 011°26'0 0.0
2014-Nov-23 02:32N 58°21' E 011°26'0 0.0
2014-Nov-23 01:32N 58°21' E 011°26'0 0.0
2014-Nov-23 00:20N 58°21' E 011°26'0 0.0
2014-Nov-22 23:29N 58°21' E 011°26'0 0.0
2014-Nov-22 22:32N 58°21' E 011°26'0 0.0
2014-Nov-22 21:29N 58°21' E 011°26'1 1.3
2014-Nov-22 20:33N 58°21' E 011°24'1110.7
2014-Nov-22 19:34N 58°13' E 011°11'2 1.7
2014-Nov-22 18:28N 58°11' E 011°09'0 0.0
2014-Nov-22 17:28N 58°11' E 011°09'0 0.0
2014-Nov-22 16:31N 58°11' E 011°09'0 0.0
2014-Nov-22 15:28N 58°11' E 011°09'0 0.0
2014-Nov-22 14:31N 58°11' E 011°09'0 0.0
2014-Nov-22 13:31N 58°11' E 011°09'0 0.0
2014-Nov-22 12:31N 58°11' E 011°09'0 0.0
2014-Nov-22 11:31N 58°11' E 011°09'0 0.0
2014-Nov-22 10:31N 58°11' E 011°09'0 0.0
2014-Nov-22 09:31N 58°11' E 011°09'0 0.0
2014-Nov-22 08:31N 58°11' E 011°09'0 0.0
2014-Nov-22 07:31N 58°11' E 011°09'0 0.0
2014-Nov-22 06:31N 58°11' E 011°09'2 2.3
2014-Nov-22 05:33N 58°10' E 011°06'1312.7
2014-Nov-22 04:33N 58°05' E 010°44'1413.2
2014-Nov-22 03:28N 57°57' E 010°20'19012.7
2014-Nov-21 12:26N 55°33' E 006°34'8312.0
2014-Nov-21 05:31N 54°23' E 005°16'1212.3
2014-Nov-21 04:31N 54°13' E 005°04'1111.8
2014-Nov-21 03:33N 54°04' E 004°54'1212.1
2014-Nov-21 02:33N 53°51' E 004°53'1312.1
2014-Nov-21 01:30N 53°39' E 004°51'1111.6
2014-Nov-21 00:34N 53°29' E 004°45'1111.3
2014-Nov-20 23:34N 53°18' E 004°37'1111.3
2014-Nov-20 22:33N 53°08' E 004°29'1111.2
2014-Nov-20 21:34N 52°58' E 004°20'1110.9
2014-Nov-20 20:33N 52°49' E 004°11'1110.8
2014-Nov-20 19:34N 52°41' E 003°59'1110.7
2014-Nov-20 18:32N 52°33' E 003°47'1110.8
2014-Nov-20 17:33N 52°24' E 003°37'2512.0
2014-Nov-20 15:26N 52°00' E 003°23'1112.4
2014-Nov-20 14:32N 51°49' E 003°19'1212.2
2014-Nov-20 13:33N 51°37' E 003°22'1414.2
2014-Nov-20 12:33N 51°26' E 003°36'1010.1
2014-Nov-20 11:34N 51°21' E 003°50'9 8.7
2014-Nov-20 10:33N 51°25' E 004°02'9 9.0
2014-Nov-20 09:33N 51°21' E 004°15'1 1.3
2014-Nov-20 08:33N 51°21' E 004°17'1 0.9
2014-Nov-20 07:15N 51°22' E 004°18'0 0.0
2014-Nov-19 07:32N 51°22' E 004°18'1 1.2
2014-Nov-19 06:34N 51°21' E 004°17'0 0.0
2014-Nov-19 05:33N 51°21' E 004°17'2 2.2
2014-Nov-19 04:33N 51°21' E 004°14'5 5.0
2014-Nov-19 03:33N 51°22' E 004°06'6 5.5
2014-Nov-19 02:33N 51°24' E 003°57'9 8.6
2014-Nov-19 01:33N 51°22' E 003°44'8 8.0
2014-Nov-19 00:34N 51°27' E 003°33'1010.3
2014-Nov-18 23:33N 51°35' E 003°23'1111.1
2014-Nov-18 22:33N 51°44' E 003°13'4411.0
2014-Nov-18 18:32N 52°24' E 003°46'1110.8
2014-Nov-18 17:33N 52°26' E 004°03'1 0.7
2014-Nov-18 16:33N 52°27' E 004°03'0 0.1
2014-Nov-18 15:33N 52°27' E 004°03'0 0.1
2014-Nov-18 14:30N 52°27' E 004°03'0 0.1
2014-Nov-18 13:33N 52°27' E 004°03'0 0.0
2014-Nov-18 12:21N 52°27' E 004°03'0 0.0
2014-Nov-18 11:24N 52°27' E 004°03'0 0.1
2014-Nov-18 10:33N 52°27' E 004°03'0 0.1
2014-Nov-18 09:30N 52°27' E 004°03'0 0.0
2014-Nov-18 08:33N 52°27' E 004°03'0 0.0
2014-Nov-18 07:33N 52°27' E 004°03'0 0.0
2014-Nov-18 06:30N 52°27' E 004°03'0 0.0
2014-Nov-18 05:33N 52°27' E 004°03'0 0.0
2014-Nov-18 04:33N 52°27' E 004°03'0 0.0
2014-Nov-18 03:33N 52°27' E 004°03'0 0.0
2014-Nov-18 02:33N 52°27' E 004°03'0 0.1
2014-Nov-18 01:33N 52°27' E 004°03'0 0.0
2014-Nov-18 00:30N 52°27' E 004°03'0 0.0
2014-Nov-17 23:33N 52°27' E 004°03'0 0.0
2014-Nov-17 22:27N 52°27' E 004°03'0 0.1
2014-Nov-17 21:33N 52°27' E 004°03'0 0.1
2014-Nov-17 20:33N 52°27' E 004°03'0 0.0
2014-Nov-17 19:33N 52°27' E 004°03'0 0.0
2014-Nov-17 18:33N 52°27' E 004°03'0 0.0
2014-Nov-17 17:33N 52°27' E 004°03'0 0.0
2014-Nov-17 16:33N 52°27' E 004°03'0 0.1
2014-Nov-17 15:33N 52°27' E 004°03'0 0.1
2014-Nov-17 14:33N 52°27' E 004°03'0 0.0
2014-Nov-17 13:33N 52°27' E 004°03'0 0.0
2014-Nov-17 12:24N 52°27' E 004°03'0 0.0
2014-Nov-17 11:30N 52°27' E 004°03'0 0.0
2014-Nov-17 10:30N 52°27' E 004°03'0 0.0
2014-Nov-17 09:21N 52°27' E 004°03'0 0.1
2014-Nov-17 08:33N 52°27' E 004°03'0 0.0
2014-Nov-17 07:33N 52°27' E 004°03'0 0.0
2014-Nov-17 06:30N 52°27' E 004°03'0 0.0
2014-Nov-17 05:33N 52°27' E 004°03'0 0.0
2014-Nov-17 04:33N 52°27' E 004°03'0 0.0
2014-Nov-17 03:33N 52°27' E 004°03'0 0.1
2014-Nov-17 02:33N 52°27' E 004°03'  

Dump ship's entire track history